Scroll for more >

River gauges, storages, and weirs in the Murray–Darling Basin

Type Locationsort descending River Water level Flow Volume Release Water temp Salinity Rainfall
River Gauge Albury (Union Bridge) Murray 1.96 m 23/02/2018 9:00 Not measured Not measured Not measured 22.4°C 23/02/2018 9:00 64.3 μS/cm 23/02/2018 9:00 Not measured Full data
River Gauge Balranald Murrumbidgee 0.59 m 23/02/2018 7:45 269 ML/Day 23/02/2018 7:45 Not measured Not measured 24.7°C 23/02/2018 7:45 227.4 μS/cm 23/02/2018 7:45 Not measured Full data
River Gauge Bandiana Kiewa 1.13 m 23/02/2018 8:45 665 ML/Day 23/02/2018 8:45 Not measured Not measured 22.3°C 23/02/2018 8:45 36.1 μS/cm 23/02/2018 8:45 Not measured Full data
River Gauge Biggara Murray 0.27 m 23/02/2018 9:00 220 ML/Day 23/02/2018 9:00 Not measured Not measured 22.3°C 23/02/2018 9:00 2.4 μS/cm 23/02/2018 9:00 0.0 mm 23/02/2018 9:00 Full data
River Gauge Bringenbrong Bridge Murray 1.73 m 23/02/2018 9:00 5191 ML/Day 23/02/2018 9:00 Not measured Not measured Not measured Not measured Not measured Full data
River Gauge Burtundy Darling 0.67 m 23/02/2018 9:00 40 ML/Day 23/02/2018 9:00 Not measured Not measured 26.0°C 23/02/2018 8:45 645.8 μS/cm 23/02/2018 8:45 Not measured Full data
River Gauge Colemans Mitta 1.02 m 23/02/2018 9:30 322 ML/Day 23/02/2018 9:30 Not measured Not measured 16.0°C 15/02/2018 3:45 54.8 μS/cm 15/02/2018 3:45 Not measured Full data
River Gauge Colemans Mitta 1.02 m 23/02/2018 9:30 322 ML/Day 23/02/2018 9:30 Not measured Not measured 16.0°C 15/02/2018 3:45 54.8 μS/cm 15/02/2018 3:45 Not measured Full data
River Gauge Colignan Murray 1.95 m 23/02/2018 8:45 6322 ML/Day 23/02/2018 8:45 Not measured Not measured 25.5°C 23/02/2018 8:45 106.3 μS/cm 23/02/2018 8:45 Not measured Full data
River Gauge Corowa Murray 2.78 m 23/02/2018 9:00 12714 ML/Day 23/02/2018 9:00 Not measured Not measured 23.7°C 23/02/2018 9:00 52.3 μS/cm 23/02/2018 9:00 Not measured Full data
Storage Dartmouth Dam Mitta 479.19 m 23/02/2018 9:30 Not measured 3425 GL 23/02/2018 9:30 Not measured Not measured Not measured Not measured Full data
Storage Dartmouth Dam Mitta 479.19 m 23/02/2018 9:30 Not measured 3425 GL 23/02/2018 9:30 Not measured Not measured Not measured Not measured Full data
River Gauge Doctors Point Murray 2.93 m 23/02/2018 9:00 14288 ML/Day 23/02/2018 9:00 Not measured Not measured 22.3°C 23/02/2018 9:00 53.9 μS/cm 23/02/2018 9:00 Not measured Full data
River Gauge Echuca Wharf Murray 87 m 23/02/2018 7:45 Not measured Not measured Not measured Not measured Not measured Not measured Full data
River Gauge Edward Escape Wakool 0.25 m 23/02/2018 8:45 94 ML/Day 23/02/2018 8:45 Not measured Not measured 23.5°C 23/02/2018 8:45 60.8 μS/cm 23/02/2018 8:45 Not measured Full data
River Gauge Edward River Offtake Murray 2.47 m 23/02/2018 9:30 1670 ML/Day 23/02/2018 9:30 Not measured Not measured 24.7°C 23/02/2018 8:45 45.3 μS/cm 23/02/2018 8:45 Not measured Full data
Weirs Euston Weir Downstream Murray 43.19 m 23/02/2018 8:45 6470 ML/Day 23/02/2018 8:45 Not measured Not measured 25.1°C 23/02/2018 8:45 116.6 μS/cm 23/02/2018 8:45 Not measured Full data
Weirs Euston Weir Upstream Murray 47.73 m 23/02/2018 7:45 Not measured 38 GL 22/02/2018 7:45 Not measured Not measured Not measured 0.0 mm 21/02/2018 9:00 Full data
River Gauge Flow to South Australia Murray Not measured Not measured Not measured 6585.4 ML/d23/02/2018 7:45 Not measured Not measured Not measured Full data
River Gauge Frenchman Creek Murray 27.34 m 23/02/2018 7:45 Not measured Not measured 229.0 ML/d23/02/2018 7:45 Not measured Not measured Not measured Full data
River Gauge Gulpa Creek Offtake Murray 2.52 m 23/02/2018 9:00 349 ML/Day 23/02/2018 9:00 Not measured Not measured Not measured Not measured Not measured Full data
River Gauge Hinnomunjie Mitta 0.49 m 23/02/2018 8:45 163 ML/Day 23/02/2018 8:45 Not measured Not measured 21.0°C 23/02/2018 8:45 39.2 μS/cm 23/02/2018 8:45 0.0 mm 23/02/2018 9:00 Full data
Storage Hume Dam Murray 183.98 m 23/02/2018 9:15 Not measured 1639 GL 23/02/2018 9:15 13000.0 ML/d23/02/2018 8:00 Not measured Not measured 0.0 mm 23/02/2018 9:00 Full data
River Gauge Jingellic Murray 1.24 m 23/02/2018 8:45 1615 ML/Day 23/02/2018 8:45 Not measured Not measured 22.8°C 23/02/2018 8:45 45.3 μS/cm 23/02/2018 8:45 0.0 mm 23/02/2018 9:00 Full data
River Gauge Kerang Loddon 0.32 m 23/02/2018 8:45 128 ML/Day 23/02/2018 8:45 Not measured Not measured 23.0°C 23/02/2018 8:45 139.0 μS/cm 23/02/2018 8:45 Not measured Full data
River Gauge Lake Albert Murray 0.58 m 23/02/2018 5:45 Not measured 242 GL 23/02/2018 5:45 Not measured Not measured Not measured Not measured Full data
River Gauge Lake Alexandrina Murray 0.63 m 23/02/2018 5:45 Not measured 1531 GL 23/02/2018 5:45 Not measured Not measured 724.3 μS/cm 23/02/2018 7:45 Not measured Full data
Storage Lake Victoria Murray 24.56 m 23/02/2018 7:45 Not measured 402 GL 23/02/2018 7:45 Not measured 24.3°C 23/02/2018 7:45 228.0 μS/cm 23/02/2018 7:45 Not measured Full data
Weirs Lock 1 Downstream Murray 0.6 m 23/02/2018 7:45 Not measured Not measured 5119.2 ML/d23/02/2018 7:45 Not measured Not measured Not measured Full data
Weirs Lock 1 Upstream Murray 3.14 m 23/02/2018 7:45 Not measured Not measured Not measured 24.8°C 23/02/2018 7:45 339.7 μS/cm 23/02/2018 7:45 Not measured Full data
Weirs Lock 2 Downstream Murray 3.3 m 23/02/2018 7:45 Not measured Not measured Not measured Not measured Not measured Not measured Full data
Weirs Lock 2 Upstream Murray 6.13 m 23/02/2018 7:45 Not measured Not measured Not measured 25.2°C 23/02/2018 7:45 323.6 μS/cm 23/02/2018 7:45 Not measured Full data
Weirs Lock 3 Downstream Murray 6.31 m 23/02/2018 7:45 Not measured Not measured Not measured Not measured Not measured Not measured Full data
Weirs Lock 3 Upstream Murray 9.83 m 23/02/2018 7:45 Not measured Not measured Not measured Not measured Not measured Not measured Full data
Weirs Lock 4 Downstream Murray 10.43 m 23/02/2018 7:45 Not measured Not measured Not measured Not measured Not measured Not measured Full data
Weirs Lock 4 Upstream Murray 13.23 m 23/02/2018 7:45 Not measured Not measured Not measured Not measured Not measured Not measured Full data
Weirs Lock 5 Downstream Murray 13.36 m 23/02/2018 7:45 Not measured Not measured Not measured Not measured Not measured Not measured Full data
Weirs Lock 5 Upstream Murray 16.31 m 23/02/2018 7:45 Not measured Not measured Not measured 25.6°C 23/02/2018 7:45 235.1 μS/cm 23/02/2018 7:45 Not measured Full data
Weirs Lock 6 Downstream Murray 16.36 m 23/02/2018 7:45 Not measured Not measured Not measured Not measured Not measured Not measured Full data
Weirs Lock 6 Upstream Murray 19.25 m 23/02/2018 7:45 Not measured Not measured Not measured 25.6°C 23/02/2018 7:45 228.6 μS/cm 23/02/2018 7:45 Not measured Full data
Weirs Lock 7 Downstream Murray 20.4 m 23/02/2018 7:45 Not measured Not measured Not measured Not measured Not measured Not measured Full data
Weirs Lock 7 Upstream Murray 21.99 m 23/02/2018 7:45 Not measured Not measured Not measured 25.8°C 23/02/2018 7:45 201.3 μS/cm 23/02/2018 7:45 Not measured Full data
Weirs Lock 8 Upstream Murray 24.44 m 23/02/2018 7:45 Not measured Not measured Not measured 25.5°C 23/02/2018 7:45 209.4 μS/cm 23/02/2018 7:45 Not measured Full data
Weirs Lock 9 Downstream Murray 24.47 m 23/02/2018 7:45 Not measured Not measured Not measured Not measured Not measured Not measured Full data
Weirs Lock 9 Upstream Murray 27.32 m 23/02/2018 7:45 Not measured Not measured Not measured 25.9°C 23/02/2018 7:45 183.0 μS/cm 23/02/2018 7:45 Not measured Full data
River Gauge McCoy Bridge Goulburn 2.1 m 23/02/2018 8:45 2044 ML/Day 23/02/2018 8:45 Not measured Not measured 24.0°C 23/02/2018 8:45 44.2 μS/cm 23/02/2018 8:45 Not measured Full data
Storage Menindee Lakes Darling Not measured Not measured 327 GL 22/02/2018 7:45 Not measured Not measured Not measured Not measured Full data
Weirs Mildura Weir downstream Murray 30.98 m 23/02/2018 8:45 Not measured Not measured Not measured 26.2°C 23/02/2018 8:45 190.0 μS/cm 23/02/2018 8:45 Not measured Full data
River Gauge Morgan Downstream Murray Not measured Not measured Not measured 3566.8 ML/d23/02/2018 7:45 Not measured 342.5 μS/cm 23/02/2018 6:45 Not measured Full data
River Gauge Mulwala Canal Murray Not measured Not measured Not measured 2966.0 ML/d23/02/2018 7:45 Not measured Not measured Not measured Full data
River Gauge Mundoo Barrage Murray 0.66 m 23/02/2018 7:45 Not measured Not measured Not measured Not measured Not measured Not measured Full data
River Gauge Murray Bridge Murray 0.53 m 23/02/2018 7:45 Not measured Not measured Not measured 23.5°C 23/02/2018 7:45 295.0 μS/cm 23/02/2018 7:45 Not measured Full data
River Gauge Peechelba Ovens 126.38 m 23/02/2018 8:45 437 ML/Day 23/02/2018 8:45 Not measured Not measured 23.5°C 23/02/2018 8:45 66.9 μS/cm 23/02/2018 8:45 Not measured Full data
River Gauge Pinegrove Murray 1 m 23/02/2018 9:00 169 ML/Day 23/02/2018 9:00 Not measured Not measured 20.6°C 23/02/2018 9:00 69.2 μS/cm 23/02/2018 9:00 0.0 mm 23/02/2018 9:00 Full data
River Gauge Rochester Campaspe 2.39 m 23/02/2018 8:45 579 ML/Day 23/02/2018 8:45 Not measured Not measured 22.1°C 23/02/2018 8:45 386.5 μS/cm 23/02/2018 8:45 0.0 mm 23/02/2018 9:00 Full data
River Gauge Rufus River Murray 20.55 m 23/02/2018 7:45 Not measured Not measured 1639.1 ML/d23/02/2018 7:45 Not measured 236.5 μS/cm 23/02/2018 6:45 Not measured Full data
Weirs Steven's Weir Downstream Wakool 1.18 m 23/02/2018 7:45 849 ML/Day 23/02/2018 7:45 Not measured Not measured 24.8°C 23/02/2018 7:45 57.2 μS/cm 23/02/2018 7:45 0.0 mm 21/02/2018 9:00 Full data
Weirs Steven's Weir Upstream Wakool 4.66 m 23/02/2018 9:15 Not measured Not measured Not measured Not measured Not measured Not measured Full data
River Gauge Stoney Crossing Murray 1.43 m 23/02/2018 8:45 453 ML/Day 23/02/2018 8:45 Not measured 455.8 ML/d23/02/2018 7:45 24.8°C 23/02/2018 8:45 270.1 μS/cm 23/02/2018 8:45 Not measured Full data
River Gauge Swan Hill Murray 1.34 m 23/02/2018 8:45 6911 ML/Day 23/02/2018 8:45 Not measured Not measured 24.5°C 23/02/2018 8:45 115.2 μS/cm 23/02/2018 8:45 Not measured Full data
River Gauge Tallandoon Mitta 1.39 m 23/02/2018 8:45 574 ML/Day 23/02/2018 8:45 Not measured Not measured 21.2°C 23/02/2018 8:45 54.7 μS/cm 23/02/2018 8:45 Not measured Full data
River Gauge Tallandoon Mitta 1.39 m 23/02/2018 8:45 574 ML/Day 23/02/2018 8:45 Not measured Not measured 21.2°C 23/02/2018 8:45 54.7 μS/cm 23/02/2018 8:45 Not measured Full data
River Gauge Tauwitchere Barrage Murray 0.69 m 23/02/2018 7:45 Not measured Not measured Not measured Not measured Not measured Not measured Full data
River Gauge Tocumwal Murray 1.97 m 23/02/2018 8:45 7718 ML/Day 23/02/2018 8:45 Not measured Not measured 23.9°C 23/02/2018 8:45 60.9 μS/cm 23/02/2018 8:45 Not measured Full data
River Gauge Torrumbarry Headworks Murray 85 m 23/02/2018 8:45 Not measured Not measured 1957.9 ML/d23/02/2018 8:45 Not measured Not measured Not measured Full data
Weirs Torrumbarry Weir Downstream Murray 2.22 m 23/02/2018 8:45 6321 ML/Day 23/02/2018 8:45 Not measured Not measured 24.8°C 23/02/2018 8:45 92.9 μS/cm 23/02/2018 8:45 Not measured Full data
Weirs Torrumbarry Weir Downstream Murray 2.22 m 23/02/2018 8:45 6321 ML/Day 23/02/2018 8:45 Not measured Not measured 24.8°C 23/02/2018 8:45 92.9 μS/cm 23/02/2018 8:45 Not measured Full data
Weirs Torrumbarry Weir Downstream Murray 2.22 m 23/02/2018 8:45 6321 ML/Day 23/02/2018 8:45 Not measured Not measured 24.8°C 23/02/2018 8:45 92.9 μS/cm 23/02/2018 8:45 Not measured Full data
Weirs Torrumbarry Weir Upstream Murray 86.05 m 23/02/2018 8:30 Not measured 37 GL 23/02/2018 7:45 Not measured 24.7°C 23/02/2018 7:45 6266.7 μS/cm 23/02/2018 7:45 0.0 mm 22/02/2018 9:00 Full data
Weirs Torrumbarry Weir Upstream Murray 86.05 m 23/02/2018 8:30 Not measured 37 GL 23/02/2018 7:45 Not measured 24.7°C 23/02/2018 7:45 6266.7 μS/cm 23/02/2018 7:45 0.0 mm 22/02/2018 9:00 Full data
Weirs Torrumbarry Weir Upstream Murray 86.05 m 23/02/2018 8:30 Not measured 37 GL 23/02/2018 7:45 Not measured 24.7°C 23/02/2018 7:45 6266.7 μS/cm 23/02/2018 7:45 0.0 mm 22/02/2018 9:00 Full data
River Gauge Wakool Canal Wakool 0.66 m 23/02/2018 7:45 Not measured Not measured 656.9 ML/d23/02/2018 8:45 Not measured Not measured Not measured Full data
River Gauge Wakool Junction Murray 2.95 m 23/02/2018 8:45 7482 ML/Day 23/02/2018 8:45 Not measured Not measured 25.2°C 23/02/2018 8:45 120.1 μS/cm 23/02/2018 8:45 Not measured Full data
River Gauge Weir 32 Upstream Darling 1.35 m 23/02/2018 8:45 214 ML/Day 23/02/2018 8:45 Not measured Not measured 27.1°C 23/02/2018 8:45 623.3 μS/cm 23/02/2018 8:45 Not measured Full data
Weirs Wentworth Weir Murray 27.52 m 23/02/2018 8:45 Not measured Not measured 5164.0 ML/d23/02/2018 7:45 Not measured 174.0 μS/cm 23/02/2018 7:45 0.0 mm 21/02/2018 9:00 Full data
River Gauge Wilcania Darling -0.24 m 23/02/2018 8:45 1 ML/Day 23/02/2018 8:45 Not measured Not measured 31.1°C 23/02/2018 9:00 0.0 μS/cm 23/02/2018 8:45 Not measured Full data
River Gauge Yarrawonga Main Channel Murray 123.94 m 23/02/2018 8:45 Not measured Not measured 1100.5 ML/d23/02/2018 7:45 Not measured Not measured Not measured Full data
Weirs Yarrawonga Weir Downstream Murray 1.4 m 23/02/2018 9:00 7878 ML/Day 23/02/2018 9:00 Not measured Not measured 23.9°C 23/02/2018 9:00 66.4 μS/cm 23/02/2018 9:00 Not measured Full data
Weirs Yarrawonga Weir Upstream Murray 124.73 m 23/02/2018 8:45 Not measured Not measured Not measured Not measured Not measured 0.0 mm 23/02/2018 9:00 Full data